Time;durP1;ratioP1;P1;durP2;ratioP2;P2;SDS_P1;SDS_P2;PMS_P1;PMS_P2;Temp;Humidity;BMP_temperature;BMP_pressure;BME280_temperature;BME280_humidity;BME280_pressure;Samples;Min_cycle;Max_cycle;Signal;HPM_P1;HPM_P2
2021/08/01 00:00:23;;;;;;;6.40;2.88;;;;;;;18.02;66.15;99792.31;20979541;28;26379;-68
2021/08/01 00:10:24;;;;;;;7.63;3.30;;;;;;;18.06;64.82;99777.09;20979355;28;20129;-68
2021/08/01 00:20:26;;;;;;;7.20;2.72;;;;;;;18.19;64.39;99760.41;20976426;28;20042;-68
2021/08/01 00:30:28;;;;;;;6.15;3.10;;;;;;;18.18;64.71;99757.88;20979096;28;20045;-68
2021/08/01 00:40:30;;;;;;;9.93;3.42;;;;;;;18.04;65.57;99749.84;20978456;28;20135;-68
2021/08/01 00:50:32;;;;;;;5.88;2.72;;;;;;;18.04;66.33;99748.06;20977985;28;20121;-69
2021/08/01 01:10:53;;;;;;;9.73;3.97;;;;;;;17.95;67.61;99732.69;20960444;28;20575;-69
2021/08/01 01:21:10;;;;;;;8.70;3.90;;;;;;;17.93;67.89;99735.41;20975647;28;20060;-68
2021/08/01 01:31:40;;;;;;;6.07;3.30;;;;;;;17.92;67.61;99746.13;20982833;28;20055;-68
2021/08/01 01:41:45;;;;;;;5.57;3.10;;;;;;;17.87;67.46;99740.19;20991291;28;20185;-69
2021/08/01 01:51:47;;;;;;;8.63;3.78;;;;;;;17.75;68.42;99748.84;20973084;28;20048;-68
2021/08/01 02:01:49;;;;;;;6.00;3.45;;;;;;;17.75;69.27;99749.69;20989152;28;20071;-68
2021/08/01 02:12:17;;;;;;;5.20;2.83;;;;;;;17.65;69.80;99740.53;20985273;28;20048;-68
2021/08/01 02:22:19;;;;;;;7.05;3.25;;;;;;;17.67;70.37;99744.78;20981060;28;20040;-68
2021/08/01 02:32:22;;;;;;;8.82;3.63;;;;;;;17.68;71.94;99740.38;20982650;28;20102;-69
2021/08/01 02:42:25;;;;;;;6.70;3.60;;;;;;;17.60;73.67;99746.06;20982109;28;20481;-68
2021/08/01 02:52:37;;;;;;;7.15;3.45;;;;;;;17.50;74.22;99734.28;20986253;28;20387;-68
2021/08/01 03:02:39;;;;;;;7.05;3.78;;;;;;;17.47;72.82;99742.38;20972678;28;20045;-69
2021/08/01 03:12:44;;;;;;;8.20;3.65;;;;;;;17.50;73.86;99750.16;20980704;28;20040;-68
2021/08/01 03:22:46;;;;;;;9.00;3.65;;;;;;;17.41;73.60;99743.56;20957390;28;20063;-69
2021/08/01 03:32:48;;;;;;;5.63;3.33;;;;;;;17.40;73.48;99756.91;20977618;28;20090;-68
2021/08/01 03:42:49;;;;;;;7.68;3.50;;;;;;;17.33;74.27;99753.72;20977600;28;20478;-68
2021/08/01 03:52:51;;;;;;;6.95;3.53;;;;;;;17.32;74.64;99762.59;20981691;28;20090;-68
2021/08/01 04:02:53;;;;;;;8.57;4.05;;;;;;;17.27;75.02;99766.41;20979871;28;20048;-69
2021/08/01 04:12:55;;;;;;;9.90;4.35;;;;;;;17.33;75.97;99776.66;20978577;28;20044;-68
2021/08/01 04:22:56;;;;;;;6.70;4.03;;;;;;;17.28;76.15;99768.97;20978978;28;20048;-68
2021/08/01 04:32:58;;;;;;;9.55;4.30;;;;;;;17.32;76.51;99772.31;20978313;28;20040;-68
2021/08/01 04:43:00;;;;;;;9.27;4.88;;;;;;;17.16;78.25;99783.72;20974178;28;20041;-68
2021/08/01 04:53:01;;;;;;;8.02;4.55;;;;;;;17.25;78.55;99776.22;20977959;28;20044;-68
2021/08/01 05:03:03;;;;;;;7.15;4.15;;;;;;;17.31;78.64;99797.94;20975944;28;20102;-69
2021/08/01 05:13:07;;;;;;;11.73;5.30;;;;;;;17.25;79.51;99792.97;20976604;28;20075;-68
2021/08/01 05:23:09;;;;;;;9.13;5.22;;;;;;;17.21;80.70;99795.88;20972572;28;20044;-68
2021/08/01 05:33:12;;;;;;;9.27;5.28;;;;;;;17.17;80.26;99801.31;20975219;28;20044;-68
2021/08/01 05:43:13;;;;;;;9.60;5.20;;;;;;;17.11;80.86;99795.50;20975337;28;20052;-68
2021/08/01 05:53:20;;;;;;;11.18;5.50;;;;;;;17.22;80.30;99786.97;20933133;28;20045;-69
2021/08/01 06:03:22;;;;;;;10.82;5.75;;;;;;;17.27;80.39;99799.03;20974055;28;20078;-69
2021/08/01 06:13:24;;;;;;;10.15;5.47;;;;;;;17.52;79.46;99800.34;20970915;28;20074;-69
2021/08/01 06:23:26;;;;;;;10.02;5.40;;;;;;;17.60;79.15;99814.03;20988363;28;20048;-68
2021/08/01 06:33:28;;;;;;;11.10;5.35;;;;;;;17.79;78.54;99819.22;20987483;28;20048;-68
2021/08/01 06:43:31;;;;;;;8.60;4.97;;;;;;;17.99;78.30;99826.94;20987093;28;20438;-68
2021/08/01 06:53:32;;;;;;;7.38;4.90;;;;;;;18.00;77.93;99833.94;20986025;28;20045;-68
2021/08/01 07:03:34;;;;;;;13.70;5.00;;;;;;;18.37;75.81;99840.69;20974732;28;20048;-68
2021/08/01 07:13:36;;;;;;;7.70;4.88;;;;;;;18.94;73.31;99853.34;20984314;28;20041;-68
2021/08/01 07:23:38;;;;;;;10.10;4.95;;;;;;;19.09;71.63;99828.53;20987747;28;20375;-68
2021/08/01 07:33:40;;;;;;;10.02;4.90;;;;;;;19.41;69.96;99836.38;20975691;28;20048;-68
2021/08/01 07:43:42;;;;;;;11.77;5.18;;;;;;;19.80;68.16;99835.72;20987269;28;20041;-68
2021/08/01 07:53:43;;;;;;;9.60;4.85;;;;;;;19.93;67.84;99836.66;20986887;28;20051;-67
2021/08/01 08:03:45;;;;;;;11.98;4.53;;;;;;;19.88;67.63;99846.72;20981392;28;20048;-68
2021/08/01 08:13:47;;;;;;;8.18;4.18;;;;;;;20.08;67.63;99863.22;20980382;28;20478;-69
2021/08/01 08:23:48;;;;;;;9.77;4.20;;;;;;;19.63;68.83;99858.00;20982870;28;20048;-67
2021/08/01 08:33:50;;;;;;;12.57;4.50;;;;;;;20.16;68.08;99869.72;20983745;28;20040;-68
2021/08/01 08:43:51;;;;;;;7.40;3.75;;;;;;;20.55;66.40;99865.47;20983424;28;20113;-68
2021/08/01 08:53:54;;;;;;;8.60;4.10;;;;;;;20.38;66.01;99871.03;20980304;28;20410;-69
2021/08/01 09:03:55;;;;;;;7.13;3.92;;;;;;;20.66;64.20;99876.28;20982931;28;20418;-69
2021/08/01 09:13:58;;;;;;;7.10;3.55;;;;;;;21.11;63.88;99871.50;20982668;28;20055;-70
2021/08/01 09:24:00;;;;;;;7.68;3.58;;;;;;;20.79;63.98;99878.13;20983110;28;20049;-69
2021/08/01 09:34:21;;;;;;;8.70;3.53;;;;;;;21.36;60.35;99888.50;20960780;28;20044;-70
2021/08/01 09:44:23;;;;;;;10.20;3.03;;;;;;;20.88;59.46;99890.81;20982442;28;20040;-70
2021/08/01 09:54:46;;;;;;;6.45;3.35;;;;;;;21.23;58.53;99897.31;20991770;28;20060;-70
2021/08/01 10:04:49;;;;;;;7.57;3.37;;;;;;;21.05;56.90;99882.56;20996880;28;20051;-69
2021/08/01 10:14:50;;;;;;;5.28;2.90;;;;;;;21.41;54.80;99873.03;20995949;28;20036;-69
2021/08/01 10:24:56;;;;;;;6.55;2.50;;;;;;;21.80;51.68;99857.88;20995625;28;20129;-70
2021/08/01 10:35:15;;;;;;;5.65;2.53;;;;;;;21.98;52.88;99857.44;20962377;28;20041;-70
2021/08/01 10:45:19;;;;;;;6.45;3.05;;;;;;;21.73;54.49;99847.66;20990409;28;20044;-70
2021/08/01 10:55:23;;;;;;;8.45;3.42;;;;;;;22.75;54.79;99844.69;20992971;28;20044;-70
2021/08/01 11:05:38;;;;;;;9.88;3.10;;;;;;;23.26;55.32;99830.19;20991259;28;20564;-70
2021/08/01 11:15:46;;;;;;;6.65;2.92;;;;;;;22.84;55.40;99818.28;20990991;28;20040;-70
2021/08/01 11:26:05;;;;;;;5.35;3.00;;;;;;;23.67;53.22;99789.56;20974763;28;20036;-71
2021/08/01 11:36:11;;;;;;;7.40;2.83;;;;;;;24.18;52.66;99788.97;20975717;28;20036;-69
2021/08/01 11:46:13;;;;;;;5.43;2.47;;;;;;;23.95;52.61;99790.84;20989299;28;20049;-69
2021/08/01 11:56:16;;;;;;;5.55;2.67;;;;;;;23.61;50.53;99813.22;20980052;28;20053;-69
2021/08/01 12:06:34;;;;;;;7.00;2.77;;;;;;;21.53;56.80;99818.94;20987858;28;20048;-69
2021/08/01 12:16:37;;;;;;;7.63;2.90;;;;;;;20.18;69.00;99816.50;20986632;28;20047;-69
2021/08/01 12:26:40;;;;;;;4.72;2.30;;;;;;;20.61;67.52;99798.59;20986716;28;20048;-69
2021/08/01 12:36:42;;;;;;;5.88;2.80;;;;;;;20.97;67.80;99807.69;20984301;28;20122;-69
2021/08/01 12:46:45;;;;;;;9.93;3.35;;;;;;;20.91;70.07;99842.72;20983167;28;20086;-73
2021/08/01 12:57:03;;;;;;;5.82;2.83;;;;;;;20.21;72.56;99869.44;20983306;28;20051;-71
2021/08/01 13:07:05;;;;;;;4.60;1.70;;;;;;;20.31;68.48;99869.69;20982532;28;20433;-70
2021/08/01 13:17:07;;;;;;;5.03;1.40;;;;;;;21.26;62.89;99872.25;20983782;28;20106;-70
2021/08/01 13:27:12;;;;;;;4.38;1.17;;;;;;;21.35;59.36;99876.97;20995250;28;20045;-70
2021/08/01 13:37:21;;;;;;;3.72;1.30;;;;;;;20.92;61.02;99887.00;21009079;28;20568;-71
2021/08/01 13:47:28;;;;;;;3.33;1.30;;;;;;;21.37;61.53;99888.41;21007418;28;20110;-72
2021/08/01 13:57:30;;;;;;;3.17;1.27;;;;;;;21.11;61.26;99882.13;21007879;28;20102;-71
2021/08/01 14:07:32;;;;;;;4.40;1.50;;;;;;;20.46;61.88;99869.56;20988657;28;20456;-66
2021/08/01 14:17:34;;;;;;;3.83;1.50;;;;;;;20.37;62.22;99874.63;21000625;28;20045;-67
2021/08/01 14:27:36;;;;;;;4.82;2.08;;;;;;;20.00;64.00;99863.69;20994784;28;20053;-67
2021/08/01 14:37:38;;;;;;;4.25;1.77;;;;;;;19.84;66.08;99860.31;20996662;28;20044;-67
2021/08/01 14:47:43;;;;;;;3.28;1.90;;;;;;;20.30;63.77;99836.09;20981272;28;20055;-67
2021/08/01 14:58:00;;;;;;;3.97;1.73;;;;;;;20.65;61.05;99832.03;20991441;28;20357;-67
2021/08/01 15:08:17;;;;;;;2.33;1.38;;;;;;;21.14;60.63;99843.81;20988782;28;20082;-67
2021/08/01 15:18:24;;;;;;;4.15;1.55;;;;;;;21.07;59.24;99848.69;20989299;28;20102;-67
2021/08/01 15:28:27;;;;;;;2.95;1.63;;;;;;;21.76;58.71;99841.28;20990218;28;20044;-67
2021/08/01 15:38:29;;;;;;;2.53;1.48;;;;;;;21.83;57.65;99860.34;20987855;28;20501;-67
2021/08/01 15:48:31;;;;;;;1.85;1.20;;;;;;;21.71;56.59;99854.09;20988182;28;20414;-68
2021/08/01 15:58:57;;;;;;;5.07;1.60;;;;;;;21.59;57.41;99854.94;20983509;28;20044;-68
2021/08/01 16:09:04;;;;;;;2.67;1.52;;;;;;;21.80;56.88;99858.78;20976698;28;20040;-68
2021/08/01 16:19:06;;;;;;;3.25;1.38;;;;;;;22.00;54.44;99844.88;20985606;28;20052;-68
2021/08/01 16:29:08;;;;;;;5.38;1.90;;;;;;;22.03;54.03;99849.94;20987178;28;20098;-68
2021/08/01 16:39:10;;;;;;;3.78;1.40;;;;;;;21.57;55.33;99852.38;20974651;28;20051;-68
2021/08/01 16:49:18;;;;;;;5.00;1.70;;;;;;;20.97;58.26;99859.09;20981786;28;20078;-68
2021/08/01 16:59:32;;;;;;;3.70;1.63;;;;;;;20.67;58.88;99877.13;20959870;28;20551;-68
2021/08/01 17:09:37;;;;;;;3.80;2.15;;;;;;;20.58;59.61;99883.91;20971091;28;20040;-68
2021/08/01 17:19:46;;;;;;;4.65;1.90;;;;;;;21.32;58.75;99894.97;20976272;28;20548;-68
2021/08/01 17:29:48;;;;;;;5.07;2.00;;;;;;;21.25;58.33;99907.84;20962234;28;20049;-68
2021/08/01 17:39:55;;;;;;;5.22;1.90;;;;;;;21.14;58.26;99900.59;20979049;28;20102;-68
2021/08/01 17:49:58;;;;;;;3.75;1.88;;;;;;;20.92;59.69;99908.28;20981241;28;20486;-68
2021/08/01 18:00:01;;;;;;;3.92;1.70;;;;;;;20.55;60.50;99904.53;20976181;28;20147;-68
2021/08/01 18:10:05;;;;;;;3.00;1.70;;;;;;;20.18;61.44;99923.66;20978948;28;20040;-68
2021/08/01 18:20:08;;;;;;;4.70;1.83;;;;;;;19.97;61.49;99940.94;20994687;28;20478;-68
2021/08/01 18:30:10;;;;;;;4.40;2.20;;;;;;;19.51;63.58;99946.38;20991102;28;20094;-69
2021/08/01 18:40:20;;;;;;;5.15;2.08;;;;;;;19.20;65.42;99966.75;20993777;28;20047;-69
2021/08/01 18:50:25;;;;;;;4.28;2.33;;;;;;;18.82;67.31;99982.22;21008411;28;20044;-68
2021/08/01 19:00:28;;;;;;;4.10;2.30;;;;;;;18.57;68.45;100003.91;21009422;28;20448;-68
2021/08/01 19:10:32;;;;;;;3.63;1.92;;;;;;;18.49;68.87;100014.06;20990320;28;20306;-69
2021/08/01 19:20:52;;;;;;;4.45;2.50;;;;;;;18.30;70.20;100021.31;20974201;28;20040;-69
2021/08/01 19:30:57;;;;;;;6.13;2.30;;;;;;;18.23;71.03;100025.25;20987124;28;20075;-69
2021/08/01 19:41:01;;;;;;;7.43;2.33;;;;;;;18.14;71.95;100042.47;20987010;28;20490;-69
2021/08/01 19:51:03;;;;;;;6.00;2.40;;;;;;;18.02;72.96;100046.66;20984695;28;20040;-68
2021/08/01 20:01:05;;;;;;;4.70;2.33;;;;;;;17.93;72.57;100055.06;20983572;28;20048;-69
2021/08/01 20:11:10;;;;;;;4.50;1.98;;;;;;;17.80;69.46;100069.88;20965563;28;20044;-69
2021/08/01 20:21:13;;;;;;;6.63;1.90;;;;;;;17.66;68.72;100068.72;20981659;28;20044;-67
2021/08/01 20:31:18;;;;;;;4.35;2.05;;;;;;;17.52;69.65;100108.28;20980065;28;20104;-69
2021/08/01 20:41:20;;;;;;;5.65;2.25;;;;;;;17.07;71.51;100116.63;20983233;28;20105;-70
2021/08/01 20:51:23;;;;;;;5.10;2.08;;;;;;;17.01;72.01;100104.56;20977356;28;20124;-70
2021/08/01 21:01:24;;;;;;;4.05;1.90;;;;;;;16.96;72.47;100111.88;20980696;28;20098;-69
2021/08/01 21:11:26;;;;;;;3.80;1.95;;;;;;;17.11;72.19;100129.66;20979066;28;20048;-69
2021/08/01 21:21:28;;;;;;;4.75;2.10;;;;;;;16.96;72.98;100116.25;20980206;28;20482;-70
2021/08/01 21:31:30;;;;;;;5.13;2.15;;;;;;;16.85;74.19;100116.78;20977273;28;20572;-70
2021/08/01 21:41:32;;;;;;;7.68;2.65;;;;;;;16.84;75.15;100121.19;20978994;28;20041;-70
2021/08/01 21:51:34;;;;;;;5.05;2.13;;;;;;;16.73;76.19;100128.78;21013571;22;20375;-79
2021/08/01 22:01:49;;;;;;;7.30;2.90;;;;;;;16.64;76.89;100137.94;20952032;28;20076;-79
2021/08/01 22:11:51;;;;;;;5.38;2.50;;;;;;;16.62;77.95;100158.31;20964415;28;20617;-81
2021/08/01 22:21:53;;;;;;;4.35;2.40;;;;;;;16.59;77.89;100158.44;20978076;28;20094;-80
2021/08/01 22:31:55;;;;;;;4.95;2.60;;;;;;;16.46;78.93;100162.53;20945673;28;20048;-79
2021/08/01 22:41:57;;;;;;;5.82;2.60;;;;;;;16.54;78.82;100165.72;20927854;28;20048;-80
2021/08/01 22:52:00;;;;;;;6.00;2.65;;;;;;;16.55;77.72;100162.13;20947379;28;20040;-80
2021/08/01 23:02:07;;;;;;;4.95;2.30;;;;;;;16.56;78.19;100169.13;20946183;28;20045;-80
2021/08/01 23:12:10;;;;;;;4.60;2.60;;;;;;;16.49;78.11;100182.72;20937942;28;20036;-79
2021/08/01 23:22:16;;;;;;;5.65;2.65;;;;;;;16.25;78.95;100192.53;20942521;28;20048;-79
2021/08/01 23:32:22;;;;;;;6.07;2.85;;;;;;;16.25;79.25;100197.81;20921179;28;20109;-80
2021/08/01 23:42:25;;;;;;;5.13;2.70;;;;;;;16.30;78.98;100183.50;20935207;28;20048;-79
2021/08/01 23:53:06;;;;;;;5.35;2.40;;;;;;;16.18;79.09;100189.28;20924036;28;20048;-80
